createdAt,value
2023-01-19T00:05:56.571Z,81.45
2023-01-19T00:12:00.187Z,81.43
2023-01-19T00:18:03.677Z,81.52
2023-01-19T00:24:07.124Z,81.49
2023-01-19T00:30:13.294Z,81.51
2023-01-19T00:36:16.842Z,81.34
2023-01-19T00:42:18.805Z,81.37
2023-01-19T00:48:22.232Z,81.15
2023-01-19T00:54:27.471Z,81.50
2023-01-19T01:00:31.257Z,81.54
2023-01-19T01:06:34.637Z,81.66
2023-01-19T01:12:26.733Z,82.26
2023-01-19T01:18:30.146Z,82.85
2023-01-19T01:24:33.653Z,82.94
2023-01-19T01:30:37.080Z,83.67
2023-01-19T01:36:40.536Z,83.20
2023-01-19T01:42:42.772Z,83.77
2023-01-19T01:48:46.421Z,84.69
2023-01-19T01:54:58.670Z,84.53
2023-01-19T02:01:00.754Z,84.55
2023-01-19T02:07:02.590Z,84.76
2023-01-19T02:13:04.924Z,84.73
2023-01-19T02:19:08.458Z,84.65
2023-01-19T02:25:11.383Z,84.32
2023-01-19T02:31:14.788Z,84.15
2023-01-19T02:37:18.426Z,84.36
2023-01-19T02:43:30.811Z,84.38
2023-01-19T02:49:34.448Z,84.18
2023-01-19T02:55:52.839Z,83.98
2023-01-19T03:02:02.492Z,83.67
2023-01-19T03:08:16.484Z,83.61
2023-01-19T03:14:32.110Z,83.35
2023-01-19T03:20:35.526Z,83.26
2023-01-19T03:26:39.272Z,83.97
2023-01-19T03:32:42.637Z,83.77
2023-01-19T03:38:46.229Z,84.20
2023-01-19T03:44:49.614Z,84.16
2023-01-19T03:50:53.122Z,84.08
2023-01-19T03:57:02.153Z,84.27
2023-01-19T04:03:05.770Z,84.47
2023-01-19T04:09:09.271Z,84.52
2023-01-19T04:15:12.857Z,84.42
2023-01-19T04:21:16.672Z,84.37
2023-01-19T04:27:20.126Z,84.34
2023-01-19T04:33:23.679Z,84.44
2023-01-19T04:39:25.583Z,84.34
2023-01-19T04:45:29.122Z,84.26
2023-01-19T04:51:32.277Z,84.06
2023-01-19T04:57:35.881Z,84.08
2023-01-19T05:03:23.597Z,84.16
2023-01-19T05:09:13.842Z,84.27
2023-01-19T05:14:40.016Z,84.42
2023-01-19T05:20:14.308Z,84.45
2023-01-19T05:26:03.235Z,84.26
2023-01-19T05:31:46.679Z,84.32
2023-01-19T05:37:39.030Z,84.22
2023-01-19T05:43:35.683Z,84.30
2023-01-19T05:49:32.185Z,84.31
2023-01-19T05:55:22.595Z,84.44
2023-01-19T06:00:45.048Z,84.25
2023-01-19T06:06:28.314Z,84.22
2023-01-19T06:12:04.025Z,84.15
2023-01-19T06:18:01.486Z,84.38
2023-01-19T06:23:29.777Z,84.24
2023-01-19T06:29:14.836Z,84.24
2023-01-19T06:34:47.184Z,84.27
2023-01-19T06:40:03.303Z,84.30
2023-01-19T06:45:39.032Z,84.16
2023-01-19T06:51:34.055Z,84.26
2023-01-19T06:57:37.594Z,84.51
2023-01-19T07:03:01.084Z,84.18
2023-01-19T07:08:55.142Z,84.23
2023-01-19T07:14:35.780Z,84.32
2023-01-19T07:20:28.251Z,84.49
2023-01-19T07:25:59.081Z,84.31
2023-01-19T07:31:45.373Z,84.53
2023-01-19T07:37:19.028Z,84.44
2023-01-19T07:42:40.840Z,84.48
2023-01-19T07:48:10.195Z,84.46
2023-01-19T07:53:56.030Z,84.21
2023-01-19T07:59:11.332Z,84.34
2023-01-19T08:05:07.497Z,84.11
2023-01-19T08:10:25.814Z,84.12
2023-01-19T08:15:41.922Z,84.22
2023-01-19T08:21:38.674Z,84.07
2023-01-19T08:27:15.028Z,84.19
2023-01-19T08:32:51.902Z,84.01
2023-01-19T08:38:44.055Z,83.81
2023-01-19T08:44:57.535Z,83.47
2023-01-19T08:50:50.941Z,83.31
2023-01-19T08:56:47.044Z,83.00
2023-01-19T09:02:32.428Z,82.95
2023-01-19T09:08:26.181Z,82.81
2023-01-19T09:13:55.594Z,82.34
2023-01-19T09:19:39.188Z,82.27
2023-01-19T09:25:37.077Z,81.96
2023-01-19T09:31:23.875Z,81.96
2023-01-19T09:37:17.025Z,81.81
2023-01-19T09:42:57.033Z,80.96
2023-01-19T09:48:57.182Z,80.83
2023-01-19T09:54:52.175Z,80.21
2023-01-19T10:00:29.075Z,79.77
2023-01-19T10:06:08.914Z,79.21
2023-01-19T10:11:59.548Z,79.10
2023-01-19T10:18:31.036Z,79.48
2023-01-19T10:24:25.215Z,78.41
2023-01-19T10:30:22.769Z,78.05
2023-01-19T10:36:18.865Z,78.39
2023-01-19T10:41:47.882Z,77.43
2023-01-19T10:47:35.064Z,77.71
2023-01-19T10:53:16.542Z,77.36
2023-01-19T10:59:03.490Z,76.86
2023-01-19T11:04:27.537Z,76.77
2023-01-19T11:10:00.760Z,76.49
2023-01-19T11:16:04.168Z,76.09
2023-01-19T11:21:57.452Z,75.95
2023-01-19T11:28:00.818Z,75.34
2023-01-19T11:34:06.994Z,74.76
2023-01-19T11:40:14.456Z,74.65
2023-01-19T11:46:20.127Z,74.21
2023-01-19T11:52:21.714Z,74.63
2023-01-19T11:58:28.411Z,74.31
2023-01-19T12:04:23.386Z,74.00
2023-01-19T12:10:45.404Z,73.13
2023-01-19T12:16:51.687Z,72.39
2023-01-19T12:22:55.089Z,71.91
2023-01-19T12:28:58.894Z,71.85
2023-01-19T12:35:03.864Z,71.22
2023-01-19T12:41:19.916Z,71.31
2023-01-19T12:47:38.468Z,71.39
2023-01-19T12:53:41.968Z,71.38
2023-01-19T12:59:45.418Z,70.88
2023-01-19T13:06:07.288Z,70.32
2023-01-19T13:12:13.700Z,70.25
2023-01-19T13:18:32.227Z,70.30
2023-01-19T13:24:50.895Z,70.11
2023-01-19T13:30:57.401Z,69.88
2023-01-19T13:37:06.911Z,70.04
2023-01-19T13:43:22.385Z,70.39
2023-01-19T13:49:31.960Z,70.65
2023-01-19T13:55:35.501Z,70.93
2023-01-19T14:01:39.025Z,70.90
2023-01-19T14:07:42.847Z,71.07
2023-01-19T14:14:06.780Z,71.25
2023-01-19T14:20:10.392Z,71.54
2023-01-19T14:26:29.079Z,71.89
2023-01-19T14:32:44.759Z,72.56
2023-01-19T14:38:48.236Z,72.49
2023-01-19T14:44:52.036Z,72.90
2023-01-19T14:51:02.822Z,73.47
2023-01-19T14:56:47.991Z,73.45
2023-01-19T15:02:51.492Z,73.85
2023-01-19T15:08:55.330Z,74.09
2023-01-19T15:14:58.820Z,74.43
2023-01-19T15:21:02.231Z,74.70
2023-01-19T15:27:05.741Z,74.99
2023-01-19T15:33:15.182Z,75.21
2023-01-19T15:39:18.603Z,75.29
2023-01-19T15:45:12.015Z,75.45
2023-01-19T15:51:18.071Z,75.66
2023-01-19T15:57:21.624Z,75.57
2023-01-19T16:03:14.966Z,75.87
2023-01-19T16:09:13.937Z,75.99
2023-01-19T16:15:17.439Z,76.07
2023-01-19T16:21:21.141Z,76.12
2023-01-19T16:27:27.506Z,76.20
2023-01-19T16:33:31.020Z,76.20
2023-01-19T16:39:34.451Z,76.39
2023-01-19T16:45:38.091Z,76.55
2023-01-19T16:51:44.105Z,76.75
2023-01-19T16:57:39.886Z,76.92
2023-01-19T17:03:43.381Z,77.02
2023-01-19T17:09:47.105Z,77.13
2023-01-19T17:15:51.072Z,77.13
2023-01-19T17:21:53.515Z,77.09
2023-01-19T17:27:57.028Z,77.25
2023-01-19T17:34:03.398Z,77.21
2023-01-19T17:40:06.893Z,77.41
2023-01-19T17:46:10.730Z,77.40
2023-01-19T17:52:15.403Z,77.44
2023-01-19T17:58:20.364Z,77.28
2023-01-19T18:04:23.848Z,77.35
2023-01-19T18:10:26.129Z,77.37
2023-01-19T18:16:29.561Z,77.26
2023-01-19T18:22:33.075Z,77.44
2023-01-19T18:28:29.018Z,77.35
2023-01-19T18:34:32.611Z,77.51
2023-01-19T18:40:36.006Z,77.44
2023-01-19T18:46:32.434Z,77.44
2023-01-19T18:52:18.572Z,77.41
2023-01-19T18:58:22.044Z,77.33
2023-01-19T19:04:25.415Z,77.39
2023-01-19T19:10:28.987Z,77.55
2023-01-19T19:16:35.159Z,77.65
2023-01-19T19:22:39.580Z,77.63
2023-01-19T19:28:43.102Z,77.72
2023-01-19T19:34:46.453Z,77.60
2023-01-19T19:40:50.269Z,77.73
2023-01-19T19:46:56.605Z,77.69
2023-01-19T19:53:00.170Z,77.71
2023-01-19T19:59:03.533Z,77.89
2023-01-19T20:05:07.263Z,77.83
2023-01-19T20:10:50.842Z,77.95
2023-01-19T20:16:54.253Z,77.93
2023-01-19T20:22:57.721Z,77.98
2023-01-19T20:28:50.114Z,78.08
2023-01-19T20:34:43.469Z,78.16
2023-01-19T20:40:47.087Z,78.08
2023-01-19T20:46:50.613Z,78.23
2023-01-19T20:52:54.041Z,78.44
2023-01-19T20:58:57.392Z,78.34
2023-01-19T21:04:53.290Z,78.22
2023-01-19T21:10:56.721Z,78.28
2023-01-19T21:17:00.161Z,78.28
2023-01-19T21:23:03.553Z,78.46
2023-01-19T21:29:07.429Z,78.46
2023-01-19T21:35:11.197Z,78.59
2023-01-19T21:41:15.026Z,78.74
2023-01-19T21:47:18.401Z,78.79
2023-01-19T21:53:21.821Z,79.00
2023-01-19T21:59:25.278Z,79.12
2023-01-19T22:05:28.639Z,79.24
2023-01-19T22:11:32.056Z,79.44
2023-01-19T22:17:35.408Z,79.59
2023-01-19T22:23:38.839Z,79.77
2023-01-19T22:29:42.207Z,79.94
2023-01-19T22:35:46.076Z,80.03
2023-01-19T22:41:55.268Z,80.03
2023-01-19T22:47:57.455Z,80.14
2023-01-19T22:54:00.962Z,80.40
2023-01-19T23:00:04.434Z,80.47
2023-01-19T23:06:08.035Z,80.64
2023-01-19T23:12:14.202Z,80.67
2023-01-19T23:18:17.570Z,80.92
2023-01-19T23:24:21.235Z,81.00
2023-01-19T23:30:23.476Z,81.18
2023-01-19T23:36:26.531Z,81.46
2023-01-19T23:42:30.006Z,81.50
2023-01-19T23:48:26.105Z,81.79
2023-01-19T23:54:29.930Z,82.01
